Time;durP1;ratioP1;P1;durP2;ratioP2;P2;SDS_P1;SDS_P2;PMS_P1;PMS_P2;Temp;Humidity;BMP_temperature;BMP_pressure;BME280_temperature;BME280_humidity;BME280_pressure;Samples;Min_cycle;Max_cycle;Signal;HPM_P1;HPM_P2
2021/07/08 00:02:09;;;;;;;;;3.00;3.00;;;;;22.28;39.98;101322.13;5079535;27;45380;-49
2021/07/08 00:04:37;;;;;;;;;2.00;2.00;;;;;22.27;39.61;101317.66;5078959;27;47343;-48
2021/07/08 00:07:04;;;;;;;;;3.00;3.00;;;;;22.25;39.78;101317.78;5060888;28;45746;-46
2021/07/08 00:09:30;;;;;;;;;3.00;3.00;;;;;22.25;40.26;101322.31;5060710;28;45352;-52
2021/07/08 00:11:55;;;;;;;;;3.00;3.00;;;;;22.22;40.16;101320.63;5061441;27;45672;-48
2021/07/08 00:14:21;;;;;;;;;2.33;2.33;;;;;22.21;40.21;101320.72;5061005;28;47970;-50
2021/07/08 00:16:46;;;;;;;;;3.00;3.00;;;;;22.20;39.88;101317.16;5078922;28;45454;-48
2021/07/08 00:19:12;;;;;;;;;3.00;3.00;;;;;22.17;40.16;101321.88;5079455;27;45336;-50
2021/07/08 00:21:39;;;;;;;;;4.00;4.00;;;;;22.17;40.49;101319.19;5079264;27;45705;-46
2021/07/08 00:24:06;;;;;;;;;3.00;3.00;;;;;22.16;40.54;101321.03;5078450;27;48700;-49
2021/07/08 00:26:32;;;;;;;;;3.67;3.33;;;;;22.15;40.65;101323.81;5078839;27;45289;-49
2021/07/08 00:28:57;;;;;;;;;4.50;4.50;;;;;22.13;40.61;101315.81;5060882;28;45453;-51
2021/07/08 00:31:23;;;;;;;;;3.00;3.00;;;;;22.12;40.82;101315.91;5077926;28;45699;-50
2021/07/08 00:33:48;;;;;;;;;5.00;3.00;;;;;22.10;41.16;101326.78;5078808;27;47014;-51
2021/07/08 00:36:14;;;;;;;;;3.00;3.00;;;;;22.10;40.84;101321.38;5079208;28;45608;-51
2021/07/08 00:38:40;;;;;;;;;3.00;3.00;;;;;22.07;41.30;101320.69;5077988;27;45453;-48
2021/07/08 00:41:05;;;;;;;;;4.00;4.00;;;;;22.06;40.96;101319.81;5044431;28;45401;-52
2021/07/08 00:43:31;;;;;;;;;5.50;3.75;;;;;22.05;41.72;101312.66;5080189;27;46872;-50
2021/07/08 00:45:58;;;;;;;;;3.75;3.75;;;;;22.04;40.88;101316.31;5078837;27;45887;-50
2021/07/08 00:48:24;;;;;;;;;4.00;4.00;;;;;22.03;41.15;101322.69;5075994;27;45601;-52
2021/07/08 00:50:50;;;;;;;;;4.75;4.75;;;;;22.02;41.26;101326.34;5061084;28;45426;-49
2021/07/08 00:53:18;;;;;;;;;3.00;3.00;;;;;22.01;41.71;101319.22;5078535;27;46968;-50
2021/07/08 00:55:47;;;;;;;;;4.67;3.00;;;;;22.00;41.71;101320.19;5057759;28;45323;-50
2021/07/08 00:58:17;;;;;;;;;3.00;3.00;;;;;21.98;41.66;101317.56;5074266;27;45379;-48
2021/07/08 01:00:43;;;;;;;;;5.75;4.00;;;;;21.97;41.69;101321.19;5080129;27;46160;-50
2021/07/08 01:03:10;;;;;;;;;4.00;4.00;;;;;21.96;42.44;101319.47;5082300;27;48421;-47
2021/07/08 01:05:41;;;;;;;;;3.00;3.00;;;;;21.95;42.06;101316.84;5082067;27;45272;-51
2021/07/08 01:08:10;;;;;;;;;2.67;2.67;;;;;21.94;42.61;101315.13;5063839;28;45755;-50
2021/07/08 01:10:36;;;;;;;;;3.00;3.00;;;;;21.93;42.68;101321.50;5065010;28;45846;-50
2021/07/08 01:13:02;;;;;;;;;7.00;4.00;;;;;21.92;42.16;101317.91;5064768;28;46835;-48
2021/07/08 01:15:29;;;;;;;;;5.00;5.00;;;;;21.91;42.56;101318.88;5083102;27;45530;-48
2021/07/08 01:17:55;;;;;;;;;2.25;2.25;;;;;21.90;42.25;101324.38;5082679;27;45759;-48
2021/07/08 01:20:25;;;;;;;;;5.00;3.33;;;;;21.88;43.00;101324.47;5082282;27;45562;-48
2021/07/08 01:22:57;;;;;;;;;4.50;4.50;;;;;21.88;42.95;101320.91;5063434;28;47449;-49
2021/07/08 01:25:24;;;;;;;;;3.33;3.33;;;;;21.87;42.81;101321.88;5081957;27;45302;-47
2021/07/08 01:27:51;;;;;;;;;6.00;4.00;;;;;21.85;42.67;101318.34;5081692;27;45373;-48
2021/07/08 01:30:18;;;;;;;;;4.00;4.00;;;;;21.83;42.94;101323.00;5063845;28;45549;-50
2021/07/08 01:32:43;;;;;;;;;4.75;4.75;;;;;21.82;43.16;101321.25;5080302;27;47532;-50
2021/07/08 01:35:09;;;;;;;;;6.00;6.00;;;;;21.81;43.31;101324.91;5081328;27;45871;-51
2021/07/08 01:37:35;;;;;;;;;5.00;5.00;;;;;21.80;42.86;101331.28;5079984;27;45457;-47
2021/07/08 01:40:03;;;;;;;;;4.33;4.33;;;;;21.78;43.81;101331.38;5063447;28;45464;-47
2021/07/08 01:42:29;;;;;;;;;6.00;6.00;;;;;21.77;43.60;101337.75;5083034;27;48291;-50
2021/07/08 01:44:55;;;;;;;;;5.00;5.00;;;;;21.76;43.73;101336.00;5075943;27;45397;-46
2021/07/08 01:47:21;;;;;;;;;6.33;5.00;;;;;21.74;43.79;101333.41;5057442;28;45567;-52
2021/07/08 01:49:47;;;;;;;;;6.00;5.00;;;;;21.73;43.71;101341.59;5063432;28;45727;-48
2021/07/08 01:52:12;;;;;;;;;5.33;5.00;;;;;21.73;44.16;101344.28;5081234;27;47838;-49
2021/07/08 01:54:38;;;;;;;;;4.00;4.00;;;;;21.71;43.76;101338.94;5062947;28;45936;-49
2021/07/08 01:57:04;;;;;;;;;4.67;4.00;;;;;21.69;43.96;101351.69;5081428;27;45339;-47
2021/07/08 01:59:29;;;;;;;;;4.67;4.67;;;;;21.68;44.23;101343.66;5081810;27;45702;-51
2021/07/08 02:01:55;;;;;;;;;4.00;4.00;;;;;21.67;43.69;101352.75;5080812;27;48203;-48
2021/07/08 02:04:20;;;;;;;;;4.50;4.50;;;;;21.65;43.94;101349.25;5081190;27;45874;-50
2021/07/08 02:06:46;;;;;;;;;5.33;4.33;;;;;21.65;44.58;101354.66;5080999;27;45433;-53
2021/07/08 02:09:12;;;;;;;;;4.00;4.00;;;;;21.63;44.38;101352.06;5081472;27;45488;-49
2021/07/08 02:11:37;;;;;;;;;5.33;4.00;;;;;21.62;44.25;101357.56;5062876;28;45441;-49
2021/07/08 02:14:04;;;;;;;;;5.00;5.00;;;;;21.60;44.23;101360.34;5081056;27;45270;-49
2021/07/08 02:16:30;;;;;;;;;4.00;4.00;;;;;21.58;44.57;101358.66;5081422;27;45373;-49
2021/07/08 02:18:57;;;;;;;;;5.00;5.00;;;;;21.58;44.84;101358.66;5081107;27;45522;-49
2021/07/08 02:21:22;;;;;;;;;5.33;5.33;;;;;21.56;44.65;101358.75;5063459;27;45458;-51
2021/07/08 02:23:48;;;;;;;;;5.33;4.00;;;;;21.54;45.00;101357.97;5063567;28;46135;-48
2021/07/08 02:26:13;;;;;;;;;4.00;4.00;;;;;21.53;44.53;101352.66;5063042;27;45594;-49
2021/07/08 02:28:40;;;;;;;;;5.00;5.00;;;;;21.51;44.89;101351.88;5082024;27;45482;-48
2021/07/08 02:31:05;;;;;;;;;4.00;4.00;;;;;21.48;45.19;101352.94;5080677;27;47531;-51
2021/07/08 02:33:32;;;;;;;;;4.00;4.00;;;;;21.47;44.72;101355.69;5062917;28;45480;-49
2021/07/08 02:35:58;;;;;;;;;4.00;4.00;;;;;21.44;45.25;101351.34;5060434;28;45345;-50
2021/07/08 02:38:24;;;;;;;;;6.00;6.00;;;;;21.42;45.53;101348.75;5061994;28;45592;-48
2021/07/08 02:40:50;;;;;;;;;4.00;4.00;;;;;21.42;45.50;101345.16;5081148;27;47211;-49
2021/07/08 02:43:16;;;;;;;;;4.00;4.00;;;;;21.40;45.64;101341.69;5081315;27;45304;-51
2021/07/08 02:45:43;;;;;;;;;4.33;4.33;;;;;21.36;45.39;101337.44;5061444;28;45424;-51
2021/07/08 02:48:11;;;;;;;;;4.00;4.00;;;;;21.30;45.21;101337.75;5059027;28;45387;-51
2021/07/08 02:50:41;;;;;;;;;5.00;5.00;;;;;21.26;45.35;101338.91;5078318;27;47265;-51
2021/07/08 02:53:06;;;;;;;;;6.50;5.75;;;;;21.25;45.96;101340.75;5061834;28;45499;-50
2021/07/08 02:55:32;;;;;;;;;3.33;3.00;;;;;21.26;46.17;101342.47;5080371;27;45394;-48
2021/07/08 02:57:59;;;;;;;;;4.00;4.00;;;;;21.27;45.92;101335.25;5080774;27;45243;-49
2021/07/08 03:00:26;;;;;;;;;3.67;3.67;;;;;21.25;45.99;101337.13;5079795;27;47316;-51
2021/07/08 03:02:52;;;;;;;;;3.67;3.67;;;;;21.25;46.09;101338.03;5079882;27;45370;-47
2021/07/08 03:05:18;;;;;;;;;7.00;5.67;;;;;21.24;45.96;101336.25;5080230;27;45287;-49
2021/07/08 03:07:44;;;;;;;;;4.00;4.00;;;;;21.24;46.11;101338.09;5061911;28;45415;-48
2021/07/08 03:10:13;;;;;;;;;6.67;6.00;;;;;21.24;46.54;101330.88;5080782;27;45459;-51
2021/07/08 03:12:39;;;;;;;;;5.00;5.00;;;;;21.23;46.48;101337.22;5080266;27;45427;-49
2021/07/08 03:15:06;;;;;;;;;4.67;4.67;;;;;21.22;46.83;101337.31;5080142;27;45295;-51
2021/07/08 03:17:32;;;;;;;;;3.67;3.67;;;;;21.21;46.81;101343.63;5080054;27;45479;-52
2021/07/08 03:19:58;;;;;;;;;5.00;5.00;;;;;21.20;46.98;101348.16;5079783;27;48179;-48
2021/07/08 03:22:24;;;;;;;;;6.00;4.00;;;;;21.20;46.48;101345.47;5079567;27;45973;-51
2021/07/08 03:24:49;;;;;;;;;5.67;5.67;;;;;21.20;47.13;101342.78;5079056;27;45245;-51
2021/07/08 03:27:15;;;;;;;;;4.00;4.00;;;;;21.20;46.76;101340.06;5080101;27;45413;-49
2021/07/08 03:29:41;;;;;;;;;5.00;5.00;;;;;21.18;47.24;101339.28;5062004;27;47152;-50
2021/07/08 03:32:08;;;;;;;;;4.33;4.33;;;;;21.16;47.47;101346.59;5079033;27;45404;-50
2021/07/08 03:34:33;;;;;;;;;5.00;4.00;;;;;21.14;47.32;101341.31;5061316;27;45554;-51
2021/07/08 03:36:59;;;;;;;;;6.67;5.67;;;;;21.14;46.89;101356.63;5079831;27;45454;-50
2021/07/08 03:39:24;;;;;;;;;5.00;5.00;;;;;21.12;47.06;101353.16;5060321;27;47047;-47
2021/07/08 03:41:50;;;;;;;;;6.67;6.00;;;;;21.10;47.12;101360.47;5061203;28;45493;-50
2021/07/08 03:44:16;;;;;;;;;6.00;5.00;;;;;21.08;47.62;101355.13;5082247;27;45473;-48
2021/07/08 03:46:41;;;;;;;;;10.00;8.00;;;;;21.07;47.76;101372.28;5075806;27;45287;-50
2021/07/08 03:49:07;;;;;;;;;7.33;7.33;;;;;21.06;47.33;101369.66;5076752;27;46983;-49
2021/07/08 03:51:33;;;;;;;;;5.25;5.25;;;;;21.05;47.02;101365.22;5061024;28;45298;-49
2021/07/08 03:53:58;;;;;;;;;8.25;6.00;;;;;21.03;47.22;101380.63;5080086;27;45330;-46
2021/07/08 03:56:24;;;;;;;;;5.75;5.25;;;;;21.00;47.53;101372.72;5080380;27;45330;-51
2021/07/08 03:58:50;;;;;;;;;6.00;5.00;;;;;20.98;47.84;101374.63;5079389;27;48245;-49
2021/07/08 04:01:16;;;;;;;;;5.33;5.00;;;;;20.95;47.54;101375.63;5079624;27;45839;-47
2021/07/08 04:03:41;;;;;;;;;4.33;4.33;;;;;20.94;47.94;101387.38;5079367;27;45363;-52
2021/07/08 04:06:07;;;;;;;;;4.00;4.00;;;;;20.92;47.93;101381.22;5079437;28;45473;-49
2021/07/08 04:08:32;;;;;;;;;4.67;4.00;;;;;20.91;47.88;101384.00;5078598;27;48258;-52
2021/07/08 04:10:58;;;;;;;;;5.00;5.00;;;;;20.88;47.79;101389.56;5060815;28;45296;-51
2021/07/08 04:13:23;;;;;;;;;6.00;6.00;;;;;20.86;48.10;101395.91;5061182;28;45402;-51
2021/07/08 04:15:50;;;;;;;;;5.00;5.00;;;;;20.84;48.31;101397.81;5061211;28;45492;-48
2021/07/08 04:18:17;;;;;;;;;5.67;5.00;;;;;20.84;48.22;101391.56;5074085;27;48114;-47
2021/07/08 04:20:44;;;;;;;;;6.33;5.33;;;;;20.81;48.37;101394.41;5078869;27;45620;-49
2021/07/08 04:23:11;;;;;;;;;6.00;5.00;;;;;20.80;48.26;101400.75;5078780;27;45460;-48
2021/07/08 04:25:37;;;;;;;;;4.00;4.00;;;;;20.80;48.83;101393.53;5061256;28;45570;-48
2021/07/08 04:28:04;;;;;;;;;5.00;5.00;;;;;20.80;48.39;101392.66;5069549;27;46966;-49
2021/07/08 04:30:29;;;;;;;;;7.33;6.67;;;;;20.78;48.27;101389.19;5079058;27;45679;-51
2021/07/08 04:32:56;;;;;;;;;4.00;4.00;;;;;20.78;48.37;101392.75;5059910;27;45327;-49
2021/07/08 04:35:40;;;;;;;;;5.67;5.67;;;;;20.77;48.75;101395.53;5079742;27;45844;-46
2021/07/08 04:38:11;;;;;;;;;4.00;4.00;;;;;20.75;48.89;101406.41;5061541;28;46502;-49
2021/07/08 04:40:38;;;;;;;;;5.00;5.00;;;;;20.75;49.00;101400.13;5081997;27;45404;-51
2021/07/08 04:43:06;;;;;;;;;4.33;4.33;;;;;20.75;48.93;101394.75;5082973;27;44790;-52
2021/07/08 04:45:32;;;;;;;;;5.33;5.33;;;;;20.75;49.10;101400.13;5081830;27;45317;-46
2021/07/08 04:47:58;;;;;;;;;5.33;5.33;;;;;20.74;48.92;101406.50;5060250;28;48561;-48
2021/07/08 04:50:24;;;;;;;;;4.00;4.00;;;;;20.73;48.83;101405.63;5064097;28;45264;-49
2021/07/08 04:52:51;;;;;;;;;5.00;5.00;;;;;20.72;49.26;101409.28;5061124;28;45398;-51
2021/07/08 04:55:18;;;;;;;;;4.00;4.00;;;;;20.70;49.18;101408.44;5079131;27;45771;-51
2021/07/08 04:57:45;;;;;;;;;4.33;4.33;;;;;20.71;48.80;101407.53;5082361;27;45330;-51
2021/07/08 05:00:13;;;;;;;;;5.00;5.00;;;;;20.72;49.02;101403.88;5079699;27;46072;-49
2021/07/08 05:02:40;;;;;;;;;4.00;4.00;;;;;20.74;49.13;101406.50;5060324;28;45657;-47
2021/07/08 05:05:07;;;;;;;;;7.33;6.33;;;;;20.76;49.40;101412.66;5056201;28;45511;-47
2021/07/08 05:07:33;;;;;;;;;12.00;10.25;;;;;20.78;49.59;101410.75;5060568;28;47098;-48
2021/07/08 05:09:59;;;;;;;;;6.00;6.00;;;;;20.83;49.28;101414.97;5061660;28;45389;-46
2021/07/08 05:12:24;;;;;;;;;6.00;6.00;;;;;20.88;49.48;101419.25;5061880;28;45418;-49
2021/07/08 05:14:50;;;;;;;;;4.33;4.33;;;;;20.92;49.59;101418.97;5061549;28;45392;-46
2021/07/08 05:17:15;;;;;;;;;7.00;6.33;;;;;20.97;49.65;101427.72;5043371;28;45440;-49
2021/07/08 05:19:41;;;;;;;;;4.00;4.00;;;;;21.02;49.32;101428.34;5026896;28;45288;-46
2021/07/08 05:22:06;;;;;;;;;15.00;13.25;;;;;21.07;49.11;101428.06;5061406;28;45846;-50
2021/07/08 05:24:32;;;;;;;;;7.75;7.75;;;;;21.11;48.86;101425.16;5061783;28;45284;-51
2021/07/08 05:26:58;;;;;;;;;6.00;5.00;;;;;21.17;48.95;101427.50;5061558;28;47189;-48
2021/07/08 05:29:25;;;;;;;;;8.75;7.75;;;;;21.24;49.50;101429.88;5061398;28;45717;-48
2021/07/08 05:31:51;;;;;;;;;6.25;6.25;;;;;21.27;49.24;101427.91;5045511;28;45564;-49
2021/07/08 05:34:17;;;;;;;;;9.00;8.50;;;;;21.33;49.33;101432.06;5061505;28;45285;-49
2021/07/08 05:36:43;;;;;;;;;5.50;5.50;;;;;21.40;48.85;101428.09;5042827;28;47632;-49
2021/07/08 05:39:08;;;;;;;;;5.67;5.67;;;;;21.48;49.15;101439.34;5060756;28;45377;-51
2021/07/08 05:41:34;;;;;;;;;5.00;5.00;;;;;21.55;48.69;101442.56;5060066;28;45963;-50
2021/07/08 05:43:59;;;;;;;;;8.00;6.00;;;;;21.62;48.61;101443.97;5061298;28;44881;-48
2021/07/08 05:46:26;;;;;;;;;8.00;6.00;;;;;21.71;48.50;101443.44;5059798;28;45893;-49
2021/07/08 05:48:53;;;;;;;;;6.00;6.00;;;;;21.81;48.62;101450.06;5057283;28;45433;-48
2021/07/08 05:51:18;;;;;;;;;10.75;9.50;;;;;21.90;48.14;101445.97;5059823;28;45334;-48
2021/07/08 05:53:44;;;;;;;;;7.00;7.00;;;;;21.98;48.31;101447.28;5061592;28;45275;-48
2021/07/08 05:56:09;;;;;;;;;6.00;6.00;;;;;22.06;47.85;101444.16;5061608;28;46751;-52
2021/07/08 05:58:35;;;;;;;;;6.33;5.00;;;;;22.16;48.19;101452.63;5061323;28;45317;-47
2021/07/08 06:01:00;;;;;;;;;7.00;7.00;;;;;22.24;48.04;101453.91;5061443;28;45354;-49
2021/07/08 06:03:26;;;;;;;;;7.00;6.33;;;;;22.32;47.78;101450.75;5061652;28;45555;-50
2021/07/08 06:05:51;;;;;;;;;6.33;6.00;;;;;22.39;47.53;101462.09;5061152;28;45424;-51
2021/07/08 06:08:18;;;;;;;;;5.33;5.33;;;;;22.46;47.53;101455.34;5059902;28;45677;-48
2021/07/08 06:10:43;;;;;;;;;7.00;5.67;;;;;22.50;47.74;101455.09;5061206;28;45402;-50
2021/07/08 06:13:10;;;;;;;;;7.00;7.00;;;;;22.56;47.65;101460.09;5061164;28;45291;-49
2021/07/08 06:15:36;;;;;;;;;5.33;5.33;;;;;22.60;47.12;101456.25;5059487;28;47009;-53
2021/07/08 06:18:01;;;;;;;;;4.00;4.00;;;;;22.63;46.85;101459.75;5043126;28;45386;-47
2021/07/08 06:20:27;;;;;;;;;6.00;5.00;;;;;22.64;47.21;101453.38;5061188;28;45389;-49
2021/07/08 06:22:52;;;;;;;;;3.67;3.33;;;;;22.65;47.33;101455.13;5060441;28;45542;-51
2021/07/08 06:25:19;;;;;;;;;7.00;7.00;;;;;22.65;47.50;101457.81;5060679;28;46224;-49
2021/07/08 06:27:45;;;;;;;;;5.00;5.00;;;;;22.66;46.93;101464.97;5060282;28;45338;-49
2021/07/08 06:30:11;;;;;;;;;4.67;4.67;;;;;22.63;46.60;101465.16;5059851;28;45327;-51
2021/07/08 06:32:36;;;;;;;;;5.33;5.00;;;;;22.61;47.29;101459.81;5059718;27;45569;-50
2021/07/08 06:35:03;;;;;;;;;4.67;4.67;;;;;22.63;47.12;101468.75;5060596;28;46348;-47
2021/07/08 06:37:29;;;;;;;;;4.33;4.33;;;;;22.66;47.33;101479.38;5059390;28;45845;-50
2021/07/08 06:39:54;;;;;;;;;6.67;5.33;;;;;22.69;47.20;101467.50;5060542;28;45409;-50
2021/07/08 06:42:20;;;;;;;;;4.33;4.33;;;;;22.71;47.08;101468.25;5080489;27;45436;-47
2021/07/08 06:44:46;;;;;;;;;7.00;7.00;;;;;22.75;47.36;101484.25;5062317;27;47103;-47
2021/07/08 06:47:17;;;;;;;;;4.00;4.00;;;;;22.75;46.73;101484.25;5074810;27;45568;-47
2021/07/08 06:49:44;;;;;;;;;5.33;5.33;;;;;22.78;47.08;101478.63;5080766;27;45446;-51
2021/07/08 06:52:10;;;;;;;;;7.00;7.00;;;;;22.81;46.97;101478.44;5080307;27;45367;-51
2021/07/08 06:54:36;;;;;;;;;10.00;8.33;;;;;22.84;46.85;101477.41;5079798;27;47497;-50
2021/07/08 06:57:02;;;;;;;;;6.33;6.33;;;;;22.87;46.80;101479.97;5079918;27;45483;-51
2021/07/08 06:59:27;;;;;;;;;5.33;5.33;;;;;22.86;47.08;101481.75;5079660;27;45216;-53
2021/07/08 07:01:52;;;;;;;;;6.00;5.00;;;;;22.90;46.86;101482.47;5062185;27;45310;-51
2021/07/08 07:04:18;;;;;;;;;5.00;5.00;;;;;22.93;47.10;101484.97;5080396;27;48034;-52
2021/07/08 07:06:43;;;;;;;;;12.75;12.75;;;;;22.97;46.85;101491.06;5080014;27;45549;-48
2021/07/08 07:09:09;;;;;;;;;6.50;6.50;;;;;22.99;46.92;101495.41;5061972;28;45402;-50
2021/07/08 07:11:35;;;;;;;;;10.25;9.75;;;;;23.01;46.75;101496.22;5061883;28;45453;-49
2021/07/08 07:14:00;;;;;;;;;8.00;7.75;;;;;23.03;46.99;101496.13;5080221;27;45369;-49
2021/07/08 07:16:26;;;;;;;;;5.00;5.00;;;;;23.03;46.69;101505.13;5080188;27;45297;-51
2021/07/08 07:18:51;;;;;;;;;6.33;6.33;;;;;23.04;46.55;101500.56;5079921;27;45464;-51
2021/07/08 07:21:17;;;;;;;;;7.00;7.00;;;;;23.06;46.67;101501.34;5079759;27;45389;-47
2021/07/08 07:23:42;;;;;;;;;6.75;6.75;;;;;23.07;46.67;101495.81;5079790;27;45614;-51
2021/07/08 07:26:09;;;;;;;;;6.33;6.33;;;;;23.10;46.85;101500.19;5079437;27;45774;-49
2021/07/08 07:28:35;;;;;;;;;7.00;7.00;;;;;23.11;46.78;101504.63;5079737;27;45320;-51
2021/07/08 07:31:00;;;;;;;;;8.00;7.00;;;;;23.11;46.86;101496.50;5079662;27;45612;-53
2021/07/08 07:33:26;;;;;;;;;8.00;7.67;;;;;23.10;46.50;101503.75;5080028;27;45373;-50
2021/07/08 07:35:51;;;;;;;;;6.00;6.00;;;;;;;;5079894;27;45302;-52
2021/07/08 07:38:18;;;;;;;;;7.00;7.00;;;;;23.06;46.78;101504.06;5079104;27;45507;-50
2021/07/08 07:40:44;;;;;;;;;7.67;6.67;;;;;23.02;47.39;101507.91;5079827;27;46021;-49
2021/07/08 07:43:10;;;;;;;;;6.33;6.33;;;;;22.98;46.85;101504.50;5061912;28;48227;-49
2021/07/08 07:45:38;;;;;;;;;7.00;7.00;;;;;22.95;47.01;101509.25;5062010;28;45523;-50
2021/07/08 07:48:04;;;;;;;;;6.00;6.00;;;;;22.93;47.53;101506.63;5061152;28;45393;-50
2021/07/08 07:50:32;;;;;;;;;6.75;5.25;;;;;22.89;47.20;101516.78;5079629;27;45388;-51
2021/07/08 07:52:59;;;;;;;;;7.25;7.25;;;;;22.84;46.78;101516.16;5079155;27;47487;-50
2021/07/08 07:55:27;;;;;;;;;5.67;5.67;;;;;22.79;46.98;101515.56;5061161;28;45579;-50
2021/07/08 07:57:56;;;;;;;;;6.00;6.00;;;;;22.74;47.31;101520.38;5080244;28;45767;-51
2021/07/08 08:00:23;;;;;;;;;6.00;5.50;;;;;22.68;47.35;101517.16;5061954;27;45328;-50
2021/07/08 08:02:49;;;;;;;;;6.00;6.00;;;;;22.61;47.71;101519.34;5079169;27;47093;-50
2021/07/08 08:10:26;;;;;;;;;7.00;7.00;;;;;22.47;47.67;101527.41;5076976;27;45337;-50
2021/07/08 08:12:52;;;;;;;;;6.00;6.00;;;;;22.41;48.25;101520.53;5079148;27;47979;-50
2021/07/08 08:15:18;;;;;;;;;6.00;4.75;;;;;22.37;48.44;101518.09;5061043;28;45358;-48
2021/07/08 08:17:45;;;;;;;;;5.75;5.00;;;;;22.33;48.57;101525.50;5059064;28;45303;-49
2021/07/08 08:20:12;;;;;;;;;6.00;6.00;;;;;22.31;48.68;101519.31;5061186;28;45470;-51
2021/07/08 08:22:38;;;;;;;;;6.50;6.00;;;;;22.29;48.63;101522.13;5078348;27;47902;-49
2021/07/08 08:25:06;;;;;;;;;6.75;6.50;;;;;22.27;48.46;101515.06;5060841;28;45272;-51
2021/07/08 08:27:31;;;;;;;;;5.67;5.67;;;;;22.26;48.90;101521.44;5078968;28;45442;-54
2021/07/08 08:29:57;;;;;;;;;3.67;3.67;;;;;22.24;48.62;101524.22;5079289;27;45438;-53
2021/07/08 08:32:22;;;;;;;;;4.00;4.00;;;;;22.24;48.20;101523.34;5077829;27;47011;-53
2021/07/08 08:34:48;;;;;;;;;6.00;5.00;;;;;22.23;48.79;101524.28;5078507;27;45665;-53
2021/07/08 08:37:14;;;;;;;;;6.00;6.00;;;;;22.24;48.83;101518.81;5059604;28;45459;-52
2021/07/08 08:39:40;;;;;;;;;5.00;5.00;;;;;22.27;48.81;101521.34;5079055;27;45567;-47
2021/07/08 08:42:07;;;;;;;;;4.00;4.00;;;;;22.33;48.53;101520.09;5060536;27;48264;-51
2021/07/08 08:44:33;;;;;;;;;6.00;4.00;;;;;22.39;48.61;101516.19;5080077;27;45506;-53
2021/07/08 08:46:59;;;;;;;;;5.33;5.33;;;;;22.49;48.26;101530.91;5059548;28;45346;-53
2021/07/08 08:49:24;;;;;;;;;4.67;4.67;;;;;22.55;47.88;101526.00;5078724;27;45206;-53
2021/07/08 08:51:50;;;;;;;;;5.33;5.33;;;;;22.57;47.64;101528.59;5078718;27;47181;-50
2021/07/08 08:54:16;;;;;;;;;5.00;5.00;;;;;22.64;48.25;101527.31;5078827;27;45639;-50
2021/07/08 08:56:42;;;;;;;;;4.25;4.25;;;;;22.68;47.55;101525.28;5078573;27;45291;-49
2021/07/08 08:59:08;;;;;;;;;5.75;5.75;;;;;22.72;47.76;101532.25;5079254;27;45323;-52
2021/07/08 09:01:34;;;;;;;;;6.00;5.00;;;;;22.75;47.65;101530.25;5078683;27;47982;-52
2021/07/08 09:04:00;;;;;;;;;4.25;4.25;;;;;22.86;47.53;101532.31;5078726;27;45316;-51
2021/07/08 09:06:36;;;;;;;;;6.00;4.75;;;;;22.96;47.72;101521.81;5078864;27;45365;-51
2021/07/08 09:09:08;;;;;;;;;7.00;5.75;;;;;23.04;46.91;101520.38;5078917;27;45697;-50
2021/07/08 09:11:35;;;;;;;;;3.00;3.00;;;;;23.11;46.60;101524.44;5060343;28;46200;-52
2021/07/08 09:14:03;;;;;;;;;5.67;4.33;;;;;23.20;46.36;101523.88;5060403;28;45741;-52
2021/07/08 09:16:33;;;;;;;;;4.33;4.00;;;;;23.29;45.95;101522.47;5078245;27;45368;-48
2021/07/08 09:18:59;;;;;;;;;5.50;5.50;;;;;23.42;45.84;101525.28;5078592;28;45407;-50
2021/07/08 09:21:27;;;;;;;;;5.25;4.00;;;;;23.56;46.07;101519.00;5060398;27;47185;-54
2021/07/08 09:24:02;;;;;;;;;6.67;6.67;;;;;23.66;45.56;101515.63;5082432;27;45238;-51
2021/07/08 09:26:28;;;;;;;;;3.67;3.67;;;;;23.72;45.26;101514.34;5076148;27;45347;-52
2021/07/08 09:29:07;;;;;;;;;4.25;4.25;;;;;23.74;45.15;101518.69;5081948;28;45397;-53
2021/07/08 09:31:35;;;;;;;;;5.00;5.00;;;;;23.70;44.90;101513.59;5080853;27;46231;-52
2021/07/08 09:34:19;;;;;;;;;5.00;5.00;;;;;23.66;45.06;101520.19;5063640;27;45390;-52
2021/07/08 09:36:48;;;;;;;;;4.25;3.75;;;;;23.66;44.91;101521.06;5082475;27;45471;-52
2021/07/08 09:39:14;;;;;;;;;5.00;4.50;;;;;23.69;44.77;101519.97;5081628;27;45256;-49
2021/07/08 09:41:52;;;;;;;;;4.50;4.50;;;;;23.75;44.43;101520.44;5082137;27;45341;-50
2021/07/08 09:44:23;;;;;;;;;4.33;4.33;;;;;23.81;43.92;101513.78;5083152;27;45904;-51
2021/07/08 09:46:49;;;;;;;;;3.75;3.50;;;;;23.87;43.79;101509.78;5063387;28;45396;-49
2021/07/08 09:49:14;;;;;;;;;2.67;2.67;;;;;23.95;43.99;101502.91;5081445;27;45466;-50
2021/07/08 09:51:41;;;;;;;;;4.67;4.67;;;;;24.03;43.29;101524.09;5081813;27;45810;-50
2021/07/08 09:54:25;;;;;;;;;4.00;4.00;;;;;24.10;43.35;101509.16;5082132;27;46118;-50
2021/07/08 09:56:53;;;;;;;;;6.50;4.50;;;;;24.15;43.46;101507.03;5081652;27;45408;-51
2021/07/08 09:59:21;;;;;;;;;3.75;3.75;;;;;24.13;43.32;101508.94;5064140;28;45705;-52
2021/07/08 10:01:58;;;;;;;;;3.00;3.00;;;;;24.08;43.78;101509.25;5063521;27;47067;-52
2021/07/08 10:04:24;;;;;;;;;4.50;4.50;;;;;23.99;43.45;101511.69;5063134;28;45401;-48
2021/07/08 10:06:51;;;;;;;;;2.50;2.50;;;;;23.91;43.80;101517.63;5062650;27;45466;-52
2021/07/08 10:09:19;;;;;;;;;3.75;3.75;;;;;23.83;43.47;101505.53;5063315;28;45812;-52
2021/07/08 10:11:50;;;;;;;;;4.50;4.50;;;;;23.76;43.92;101513.22;5063559;27;45478;-51
2021/07/08 10:14:19;;;;;;;;;5.67;5.67;;;;;23.71;43.72;101512.63;5063654;28;45469;-51
2021/07/08 10:16:54;;;;;;;;;6.67;3.33;;;;;23.67;43.54;101511.94;5060629;28;45392;-50
2021/07/08 10:19:22;;;;;;;;;4.00;4.00;;;;;23.65;43.87;101508.47;5063521;28;45396;-50
2021/07/08 10:21:49;;;;;;;;;5.00;3.33;;;;;23.62;43.63;101513.19;5080520;27;47051;-50
2021/07/08 10:24:16;;;;;;;;;2.67;2.67;;;;;23.59;43.17;101516.09;5080972;27;45636;-51
2021/07/08 10:26:46;;;;;;;;;4.00;4.00;;;;;23.54;43.37;101519.09;5080773;27;45416;-50
2021/07/08 10:29:12;;;;;;;;;3.00;2.67;;;;;23.51;43.25;101513.00;5081516;27;45416;-49
2021/07/08 10:31:41;;;;;;;;;5.33;5.33;;;;;23.48;43.35;101512.19;5080041;27;47526;-51
2021/07/08 10:34:11;;;;;;;;;5.33;5.00;;;;;23.47;43.32;101512.28;5079861;27;45244;-48
2021/07/08 10:36:38;;;;;;;;;4.00;4.00;;;;;23.47;43.60;101515.88;5080596;27;45659;-52
2021/07/08 10:39:09;;;;;;;;;3.67;3.67;;;;;23.54;42.95;101515.50;5061608;27;45648;-50
2021/07/08 10:41:34;;;;;;;;;5.00;5.00;;;;;23.62;43.19;101513.19;5080513;27;47214;-51
2021/07/08 10:44:00;;;;;;;;;2.67;2.67;;;;;23.77;42.93;101501.41;5081093;27;45353;-51
2021/07/08 10:46:37;;;;;;;;;4.00;3.67;;;;;23.94;42.76;101506.59;5077127;27;45705;-47
2021/07/08 10:49:13;;;;;;;;;4.25;4.25;;;;;24.09;42.75;101504.72;5063089;28;45398;-46
2021/07/08 10:51:42;;;;;;;;;5.00;4.33;;;;;24.24;42.85;101502.81;5080594;27;46667;-50
2021/07/08 10:54:28;;;;;;;;;5.00;5.00;;;;;24.37;42.45;101501.06;5058744;28;45374;-47
2021/07/08 10:56:56;;;;;;;;;5.00;5.00;;;;;24.45;42.01;101504.13;5077327;27;45449;-47
2021/07/08 10:59:22;;;;;;;;;4.00;4.00;;;;;24.46;41.60;101505.88;5080742;27;45405;-47
2021/07/08 11:01:51;;;;;;;;;4.33;4.33;;;;;24.50;41.70;101499.25;5079567;27;48069;-51
2021/07/08 11:04:56;;;;;;;;;5.50;5.50;;;;;24.58;41.52;101499.63;5062250;28;45691;-50
2021/07/08 11:07:22;;;;;;;;;4.75;4.75;;;;;24.64;41.83;101511.88;5079454;27;45421;-51
2021/07/08 11:09:54;;;;;;;;;6.00;5.00;;;;;24.65;42.17;101511.81;5081003;27;45447;-51
2021/07/08 11:12:36;;;;;;;;;5.75;5.25;;;;;24.70;42.08;101516.06;5059160;28;47332;-47
2021/07/08 11:15:07;;;;;;;;;6.50;6.50;;;;;24.74;42.24;101520.28;5060839;27;45422;-51
2021/07/08 11:17:40;;;;;;;;;5.25;5.25;;;;;24.83;42.36;101516.94;5045052;28;45449;-48
2021/07/08 11:20:29;;;;;;;;;5.25;5.25;;;;;24.91;42.02;101515.47;5080078;27;45287;-47
2021/07/08 11:22:56;;;;;;;;;5.00;5.00;;;;;24.97;41.85;101521.44;5079390;27;48043;-49
2021/07/08 11:25:40;;;;;;;;;5.50;5.50;;;;;25.02;42.10;101524.72;5079982;27;45880;-52
2021/07/08 11:28:26;;;;;;;;;4.25;4.25;;;;;25.08;41.60;101532.44;5077784;28;45246;-49
2021/07/08 11:31:06;;;;;;;;;7.00;5.25;;;;;25.14;41.78;101526.56;5078772;27;45326;-50